Time;durP1;ratioP1;P1;durP2;ratioP2;P2;SDS_P1;SDS_P2;PMS_P1;PMS_P2;Temp;Humidity;BMP_temperature;BMP_pressure;BME280_temperature;BME280_humidity;BME280_pressure;Samples;Min_cycle;Max_cycle;Signal;HPM_P1;HPM_P2
2024/03/08 00:00:09;;;;;;;46.90;21.53;;;;;;;;;;5091320;28;20024;-72
2024/03/08 00:02:38;;;;;;;46.08;19.60;;;;;;;;;;5091606;28;20052;-71
2024/03/08 00:05:06;;;;;;;53.80;22.43;;;;;;;;;;5091126;28;20059;-72
2024/03/08 00:07:31;;;;;;;45.03;21.33;;;;;;;;;;5091313;28;20031;-72
2024/03/08 00:09:57;;;;;;;47.53;21.67;;;;;;;;;;5090996;28;20038;-73
2024/03/08 00:12:22;;;;;;;45.47;20.63;;;;;;;;;;5109733;28;20038;-73
2024/03/08 00:14:48;;;;;;;49.57;21.83;;;;;;;;;;5109712;28;20028;-72
2024/03/08 00:17:15;;;;;;;50.87;22.17;;;;;;;;;;5091352;28;20050;-72
2024/03/08 00:19:41;;;;;;;42.60;19.97;;;;;;;;;;5109562;28;20024;-72
2024/03/08 00:22:07;;;;;;;49.23;20.43;;;;;;;;;;5110092;28;20073;-72
2024/03/08 00:24:33;;;;;;;48.10;21.47;;;;;;;;;;5109918;28;20524;-73
2024/03/08 00:27:02;;;;;;;42.63;19.87;;;;;;;;;;5110200;28;20058;-73
2024/03/08 00:29:28;;;;;;;47.30;22.00;;;;;;;;;;5109924;28;20027;-74
2024/03/08 00:31:54;;;;;;;42.90;18.87;;;;;;;;;;5091483;28;20114;-72
2024/03/08 00:34:19;;;;;;;49.13;20.43;;;;;;;;;;5109505;28;20106;-72
2024/03/08 00:36:45;;;;;;;44.77;20.77;;;;;;;;;;5109471;28;20030;-74
2024/03/08 00:39:11;;;;;;;45.93;20.83;;;;;;;;;;5108936;28;20035;-71
2024/03/08 00:41:37;;;;;;;41.17;21.27;;;;;;;;;;5090866;28;20031;-73
2024/03/08 00:44:04;;;;;;;38.50;19.37;;;;;;;;;;5108878;28;20538;-73
2024/03/08 00:46:31;;;;;;;50.63;21.93;;;;;;;;;;5090992;28;20039;-71
2024/03/08 00:48:57;;;;;;;49.80;22.97;;;;;;;;;;5091110;28;20023;-74
2024/03/08 00:51:22;;;;;;;47.23;21.30;;;;;;;;;;5091346;28;20401;-72
2024/03/08 00:53:48;;;;;;;51.23;21.13;;;;;;;;;;5091741;28;20131;-74
2024/03/08 00:56:13;;;;;;;43.53;20.13;;;;;;;;;;5116680;28;20297;-72
2024/03/08 00:58:40;;;;;;;47.23;21.00;;;;;;;;;;5105970;28;20023;-73
2024/03/08 01:01:05;;;;;;;44.53;21.20;;;;;;;;;;5093056;28;20104;-70
2024/03/08 01:03:31;;;;;;;45.30;21.00;;;;;;;;;;5095565;28;20471;-70
2024/03/08 01:06:01;;;;;;;43.20;19.50;;;;;;;;;;5109412;28;20085;-73
2024/03/08 01:08:28;;;;;;;43.00;18.83;;;;;;;;;;5090777;28;20053;-72
2024/03/08 01:10:53;;;;;;;42.43;19.50;;;;;;;;;;5109082;28;20106;-73
2024/03/08 01:13:21;;;;;;;49.00;20.43;;;;;;;;;;5090654;28;20573;-72
2024/03/08 01:15:46;;;;;;;47.67;20.43;;;;;;;;;;5109242;28;20226;-72
2024/03/08 01:18:12;;;;;;;45.90;21.37;;;;;;;;;;5090251;28;20070;-73
2024/03/08 01:20:37;;;;;;;41.93;19.60;;;;;;;;;;5094175;28;20081;-73
2024/03/08 01:23:07;;;;;;;44.83;20.90;;;;;;;;;;5094372;28;20402;-73
2024/03/08 01:25:33;;;;;;;42.33;19.17;;;;;;;;;;5094182;28;20031;-71
2024/03/08 01:27:59;;;;;;;51.70;20.20;;;;;;;;;;5112873;28;20035;-73
2024/03/08 01:30:24;;;;;;;44.77;20.57;;;;;;;;;;5093994;28;20443;-72
2024/03/08 01:32:50;;;;;;;47.23;19.73;;;;;;;;;;5112756;28;20096;-72
2024/03/08 01:35:15;;;;;;;44.60;19.57;;;;;;;;;;5112388;28;20055;-72
2024/03/08 01:37:41;;;;;;;44.13;19.60;;;;;;;;;;5094406;28;20046;-72
2024/03/08 01:40:08;;;;;;;50.13;22.10;;;;;;;;;;5112516;28;20446;-71
2024/03/08 01:42:37;;;;;;;44.17;19.83;;;;;;;;;;5112299;28;20507;-73
2024/03/08 01:45:07;;;;;;;49.53;21.13;;;;;;;;;;5112359;28;20044;-72
2024/03/08 01:47:33;;;;;;;50.07;21.90;;;;;;;;;;5093828;28;20036;-72
2024/03/08 01:50:03;;;;;;;42.67;21.37;;;;;;;;;;5111942;28;20028;-73
2024/03/08 01:52:33;;;;;;;53.07;22.63;;;;;;;;;;5093914;28;20088;-72
2024/03/08 01:55:06;;;;;;;48.00;21.10;;;;;;;;;;5093799;28;20403;-72
2024/03/08 01:57:33;;;;;;;44.10;19.70;;;;;;;;;;5112459;28;20040;-72
2024/03/08 02:00:03;;;;;;;44.37;19.93;;;;;;;;;;5093641;28;20552;-72
2024/03/08 02:02:31;;;;;;;42.17;20.80;;;;;;;;;;5093825;28;20036;-71
2024/03/08 02:04:57;;;;;;;43.13;20.13;;;;;;;;;;5093401;28;20066;-73
2024/03/08 02:07:22;;;;;;;48.23;19.57;;;;;;;;;;5111842;28;20451;-71
2024/03/08 02:09:48;;;;;;;44.70;20.63;;;;;;;;;;5093502;28;20024;-71
2024/03/08 02:12:13;;;;;;;40.47;21.03;;;;;;;;;;5111604;28;20028;-71
2024/03/08 02:14:39;;;;;;;46.03;20.13;;;;;;;;;;5093139;28;20031;-73
2024/03/08 02:17:05;;;;;;;44.20;20.67;;;;;;;;;;5093080;28;20035;-72
2024/03/08 02:19:32;;;;;;;44.20;20.60;;;;;;;;;;5111628;28;20115;-72
2024/03/08 02:21:57;;;;;;;45.50;20.37;;;;;;;;;;5111615;28;20034;-72
2024/03/08 02:24:24;;;;;;;45.13;20.33;;;;;;;;;;5111384;28;20553;-72
2024/03/08 02:26:51;;;;;;;46.70;21.37;;;;;;;;;;5093168;28;20038;-72
2024/03/08 02:29:17;;;;;;;44.97;19.30;;;;;;;;;;5093190;28;20027;-72
2024/03/08 02:31:42;;;;;;;47.53;20.00;;;;;;;;;;5111216;28;20153;-72
2024/03/08 02:34:09;;;;;;;49.23;21.47;;;;;;;;;;5092878;28;20407;-72
2024/03/08 02:36:35;;;;;;;49.70;21.50;;;;;;;;;;5093513;28;20020;-74
2024/03/08 02:39:02;;;;;;;47.53;20.83;;;;;;;;;;5111299;28;20020;-72
2024/03/08 02:41:28;;;;;;;47.17;21.27;;;;;;;;;;5110853;28;20020;-72
2024/03/08 02:43:55;;;;;;;46.93;21.57;;;;;;;;;;5111305;28;20023;-72
2024/03/08 02:46:20;;;;;;;46.57;20.77;;;;;;;;;;5092734;28;20547;-72
2024/03/08 02:48:46;;;;;;;45.30;21.33;;;;;;;;;;5092748;28;20027;-72
2024/03/08 02:51:13;;;;;;;44.87;20.33;;;;;;;;;;5093104;28;20072;-72
2024/03/08 02:53:39;;;;;;;50.83;21.43;;;;;;;;;;5095876;27;20073;-70
2024/03/08 02:56:08;;;;;;;49.80;20.87;;;;;;;;;;5135518;27;20474;-71
2024/03/08 02:58:33;;;;;;;45.67;21.77;;;;;;;;;;5134647;27;20087;-72
2024/03/08 03:00:59;;;;;;;44.13;21.03;;;;;;;;;;5114301;27;20022;-73
2024/03/08 03:03:26;;;;;;;44.37;20.07;;;;;;;;;;5113134;27;20478;-72
2024/03/08 03:05:55;;;;;;;49.23;21.07;;;;;;;;;;5112899;27;20047;-72
2024/03/08 03:08:21;;;;;;;44.80;20.77;;;;;;;;;;5131863;27;20015;-72
2024/03/08 03:10:47;;;;;;;46.07;20.87;;;;;;;;;;5131154;27;20360;-71
2024/03/08 03:13:14;;;;;;;56.27;21.80;;;;;;;;;;5130230;27;20031;-71
2024/03/08 03:15:41;;;;;;;54.70;23.57;;;;;;;;;;5112672;27;20079;-73
2024/03/08 03:18:07;;;;;;;50.07;23.20;;;;;;;;;;5112275;27;20031;-71
2024/03/08 03:20:39;;;;;;;47.80;22.83;;;;;;;;;;5112289;27;20019;-72
2024/03/08 03:23:07;;;;;;;;;;;;;;;;;;5131580;27;20466;-73
2024/03/08 03:25:34;;;;;;;47.37;20.97;;;;;;;;;;5131132;27;19911;-72
2024/03/08 03:28:00;;;;;;;53.60;21.10;;;;;;;;;;5130896;27;20043;-72
2024/03/08 03:30:26;;;;;;;47.33;22.10;;;;;;;;;;5112066;27;20107;-71
2024/03/08 03:32:54;;;;;;;50.17;22.50;;;;;;;;;;5130854;27;20023;-72
2024/03/08 03:35:20;;;;;;;47.47;22.07;;;;;;;;;;5130618;27;20038;-72
2024/03/08 03:38:02;;;;;;;44.57;20.97;;;;;;;;;;5112289;27;20019;-71
2024/03/08 03:40:31;;;;;;;45.80;21.50;;;;;;;;;;5111827;27;20023;-72
2024/03/08 03:42:56;;;;;;;45.23;20.30;;;;;;;;;;5118779;27;20031;-71
2024/03/08 03:45:23;;;;;;;52.97;22.23;;;;;;;;;;5109840;28;20122;-72
2024/03/08 03:47:48;;;;;;;45.77;20.63;;;;;;;;;;5110342;28;20031;-72
2024/03/08 03:50:14;;;;;;;50.43;21.50;;;;;;;;;;5091287;28;20072;-72
2024/03/08 03:52:39;;;;;;;53.90;22.97;;;;;;;;;;5109786;28;20515;-72
2024/03/08 03:55:05;;;;;;;46.00;20.80;;;;;;;;;;5123305;27;20027;-70
2024/03/08 03:57:31;;;;;;;57.00;22.17;;;;;;;;;;5130025;27;20424;-73
2024/03/08 03:59:58;;;;;;;43.73;21.87;;;;;;;;;;5130231;27;20200;-72
2024/03/08 04:02:26;;;;;;;47.23;20.93;;;;;;;;;;5111248;27;20019;-73
2024/03/08 04:04:54;;;;;;;59.93;23.87;;;;;;;;;;5129979;27;20035;-72
2024/03/08 04:07:20;;;;;;;51.80;21.43;;;;;;;;;;5130133;27;20302;-72
2024/03/08 04:09:46;;;;;;;51.97;23.00;;;;;;;;;;5111850;28;20292;-72
2024/03/08 04:12:12;;;;;;;50.87;22.53;;;;;;;;;;5130160;27;20071;-72
2024/03/08 04:14:42;;;;;;;49.83;22.73;;;;;;;;;;5111953;28;20505;-72
2024/03/08 04:17:21;;;;;;;49.03;21.93;;;;;;;;;;5114753;28;20039;-71
2024/03/08 04:19:48;;;;;;;45.33;20.07;;;;;;;;;;5117360;28;20054;-71
2024/03/08 04:22:14;;;;;;;43.63;21.73;;;;;;;;;;5086134;28;20142;-71
2024/03/08 04:24:40;;;;;;;49.13;23.13;;;;;;;;;;5116666;28;20038;-71
2024/03/08 04:27:06;;;;;;;44.07;21.40;;;;;;;;;;5117870;28;20054;-70
2024/03/08 04:29:32;;;;;;;49.30;22.87;;;;;;;;;;5117277;28;20031;-72
2024/03/08 04:31:58;;;;;;;51.23;22.97;;;;;;;;;;5091242;28;20118;-70
2024/03/08 04:34:23;;;;;;;49.77;22.50;;;;;;;;;;5109501;28;20094;-72
2024/03/08 04:36:49;;;;;;;49.13;22.63;;;;;;;;;;5090821;28;20027;-72
2024/03/08 04:39:15;;;;;;;49.33;21.27;;;;;;;;;;5109292;28;20106;-72
2024/03/08 04:41:43;;;;;;;48.57;22.23;;;;;;;;;;5109185;28;20536;-71
2024/03/08 04:44:10;;;;;;;53.83;21.70;;;;;;;;;;5109108;28;20024;-71
2024/03/08 04:46:36;;;;;;;51.13;21.50;;;;;;;;;;5109185;28;20039;-72
2024/03/08 04:49:02;;;;;;;52.97;21.90;;;;;;;;;;5109165;28;20031;-71
2024/03/08 04:51:27;;;;;;;51.87;21.87;;;;;;;;;;5109214;28;20043;-72
2024/03/08 04:53:53;;;;;;;49.20;23.40;;;;;;;;;;5091662;28;20368;-72
2024/03/08 04:56:19;;;;;;;44.17;19.47;;;;;;;;;;5113184;28;20035;-73
2024/03/08 04:58:46;;;;;;;61.43;24.43;;;;;;;;;;5113356;28;20046;-73
2024/03/08 05:01:12;;;;;;;46.37;21.47;;;;;;;;;;5094420;28;20027;-71
2024/03/08 05:03:39;;;;;;;53.63;23.17;;;;;;;;;;5115610;28;20023;-72
2024/03/08 05:06:05;;;;;;;47.93;21.47;;;;;;;;;;5117825;28;20078;-73
2024/03/08 05:08:30;;;;;;;58.93;21.70;;;;;;;;;;5096678;28;20054;-72
2024/03/08 05:10:57;;;;;;;46.10;21.43;;;;;;;;;;5094929;28;20088;-72
2024/03/08 05:13:23;;;;;;;51.80;22.27;;;;;;;;;;5112880;28;20028;-73
2024/03/08 05:15:50;;;;;;;44.63;21.63;;;;;;;;;;5094461;28;20027;-72
2024/03/08 05:18:16;;;;;;;50.93;21.87;;;;;;;;;;5094328;28;20034;-72
2024/03/08 05:20:41;;;;;;;49.27;21.33;;;;;;;;;;5095235;28;20031;-73
2024/03/08 05:23:08;;;;;;;53.17;22.30;;;;;;;;;;5113055;28;20049;-73
2024/03/08 05:25:33;;;;;;;63.33;24.73;;;;;;;;;;5077914;28;20035;-72
2024/03/08 05:27:59;;;;;;;49.57;23.27;;;;;;;;;;5094179;28;20391;-73
2024/03/08 05:30:24;;;;;;;55.87;22.83;;;;;;;;;;5112146;28;20038;-73
2024/03/08 05:32:50;;;;;;;47.00;21.87;;;;;;;;;;5094037;28;20095;-71
2024/03/08 05:35:16;;;;;;;47.87;19.63;;;;;;;;;;5093752;28;20031;-71
2024/03/08 05:37:45;;;;;;;49.20;22.47;;;;;;;;;;5112332;28;20028;-73
2024/03/08 05:40:11;;;;;;;56.03;21.23;;;;;;;;;;5094012;28;20494;-73
2024/03/08 05:42:37;;;;;;;50.23;22.93;;;;;;;;;;5111820;28;20050;-72
2024/03/08 05:45:06;;;;;;;55.97;23.87;;;;;;;;;;5112305;28;20387;-72
2024/03/08 05:47:32;;;;;;;51.33;22.07;;;;;;;;;;5111851;28;20027;-72
2024/03/08 05:49:59;;;;;;;47.90;20.40;;;;;;;;;;5093525;28;20024;-72
2024/03/08 05:52:25;;;;;;;51.57;21.20;;;;;;;;;;5112094;28;20031;-72
2024/03/08 05:54:51;;;;;;;49.20;21.27;;;;;;;;;;5110405;28;20051;-71
2024/03/08 05:57:17;;;;;;;52.07;22.03;;;;;;;;;;5092543;28;20097;-72
2024/03/08 05:59:43;;;;;;;56.43;22.57;;;;;;;;;;5111396;28;20090;-73
2024/03/08 06:02:09;;;;;;;53.97;22.33;;;;;;;;;;5093783;28;20468;-71
2024/03/08 06:04:37;;;;;;;43.80;20.17;;;;;;;;;;5091715;28;20062;-73
2024/03/08 06:07:03;;;;;;;54.77;22.17;;;;;;;;;;5109427;27;20032;-73
2024/03/08 06:09:29;;;;;;;50.20;22.50;;;;;;;;;;5111890;28;20155;-71
2024/03/08 06:11:55;;;;;;;46.50;21.17;;;;;;;;;;5110759;28;20027;-72
2024/03/08 06:14:24;;;;;;;48.77;22.10;;;;;;;;;;5111512;28;20485;-72
2024/03/08 06:16:52;;;;;;;55.33;24.40;;;;;;;;;;5110741;28;20027;-71
2024/03/08 06:19:17;;;;;;;50.43;21.53;;;;;;;;;;5092813;28;20410;-72
2024/03/08 06:21:43;;;;;;;50.50;23.50;;;;;;;;;;5090571;27;20035;-77
2024/03/08 06:24:08;;;;;;;47.90;21.30;;;;;;;;;;5092978;28;20055;-76
2024/03/08 06:26:34;;;;;;;48.97;21.17;;;;;;;;;;5083691;28;20035;-76
2024/03/08 06:29:00;;;;;;;66.93;24.40;;;;;;;;;;5126905;27;20031;-75
2024/03/08 06:31:26;;;;;;;57.17;23.20;;;;;;;;;;5091895;28;20028;-75
2024/03/08 06:33:54;;;;;;;57.97;24.80;;;;;;;;;;5110252;28;20115;-74
2024/03/08 06:36:21;;;;;;;47.90;21.13;;;;;;;;;;5094170;28;20420;-74
2024/03/08 06:38:49;;;;;;;50.77;22.13;;;;;;;;;;5093345;28;20552;-74
2024/03/08 06:41:17;;;;;;;54.03;24.87;;;;;;;;;;5108907;28;20035;-72
2024/03/08 06:43:51;;;;;;;52.63;21.40;;;;;;;;;;5091676;28;20031;-73
2024/03/08 06:46:17;;;;;;;50.53;22.83;;;;;;;;;;5075547;28;20039;-71
2024/03/08 06:48:43;;;;;;;52.17;22.67;;;;;;;;;;5111439;28;20038;-73
2024/03/08 06:51:10;;;;;;;54.53;24.50;;;;;;;;;;5112188;28;20028;-75
2024/03/08 06:53:37;;;;;;;56.67;23.03;;;;;;;;;;5105704;27;20042;-73
2024/03/08 06:56:03;;;;;;;54.50;23.63;;;;;;;;;;5110086;28;20102;-76
2024/03/08 06:58:30;;;;;;;52.20;22.87;;;;;;;;;;5075085;28;20103;-73
2024/03/08 07:01:00;;;;;;;50.00;23.13;;;;;;;;;;5111244;28;20030;-74
2024/03/08 07:03:27;;;;;;;56.43;25.60;;;;;;;;;;5091943;28;20028;-73
2024/03/08 07:05:53;;;;;;;49.07;22.40;;;;;;;;;;5092547;28;20141;-73
2024/03/08 07:08:18;;;;;;;56.93;23.70;;;;;;;;;;5089664;28;20375;-72
2024/03/08 07:10:45;;;;;;;53.33;23.60;;;;;;;;;;5089309;28;20036;-76
2024/03/08 07:13:12;;;;;;;47.40;22.27;;;;;;;;;;5092332;28;20039;-70
2024/03/08 07:15:45;;;;;;;54.60;24.13;;;;;;;;;;5089980;28;20129;-75
2024/03/08 07:18:14;;;;;;;52.00;26.40;;;;;;;;;;5068807;28;20036;-71
2024/03/08 07:20:40;;;;;;;48.80;24.17;;;;;;;;;;5091359;28;20514;-71
2024/03/08 07:23:08;;;;;;;48.57;22.67;;;;;;;;;;5079537;28;20028;-72
2024/03/08 07:25:35;;;;;;;53.20;23.97;;;;;;;;;;5095489;28;20129;-74
2024/03/08 07:28:06;;;;;;;51.63;21.20;;;;;;;;;;5076322;28;20075;-73
2024/03/08 07:33:15;;;;;;;56.20;21.73;;;;;;;;;;5089712;28;20085;-73
2024/03/08 07:35:44;;;;;;;45.90;20.53;;;;;;;;;;5090797;28;20100;-71
2024/03/08 07:38:11;;;;;;;51.87;22.23;;;;;;;;;;5090400;28;20044;-74
2024/03/08 07:40:46;;;;;;;52.73;23.27;;;;;;;;;;5095796;28;20119;-72
2024/03/08 07:43:13;;;;;;;50.97;20.97;;;;;;;;;;5097246;28;20067;-72
2024/03/08 07:45:40;;;;;;;51.47;21.40;;;;;;;;;;5096841;28;20093;-71
2024/03/08 07:48:16;;;;;;;55.40;23.10;;;;;;;;;;5090841;28;20047;-71
2024/03/08 07:50:43;;;;;;;47.90;20.17;;;;;;;;;;5090490;28;20032;-72
2024/03/08 07:53:10;;;;;;;50.00;22.03;;;;;;;;;;5090669;28;20038;-74
2024/03/08 07:55:36;;;;;;;54.33;22.97;;;;;;;;;;5095718;28;20139;-71
2024/03/08 07:58:06;;;;;;;52.50;21.43;;;;;;;;;;5091295;28;20097;-73
2024/03/08 08:00:45;;;;;;;46.13;21.20;;;;;;;;;;5090844;28;20055;-71
2024/03/08 08:03:12;;;;;;;44.37;20.30;;;;;;;;;;5091851;28;20484;-71
2024/03/08 08:05:48;;;;;;;46.97;20.43;;;;;;;;;;5107613;27;20063;-71
2024/03/08 08:08:15;;;;;;;50.10;19.17;;;;;;;;;;5097336;28;20039;-73
2024/03/08 08:10:42;;;;;;;43.83;20.87;;;;;;;;;;5078415;28;20070;-72
2024/03/08 08:13:10;;;;;;;39.57;19.27;;;;;;;;;;5079914;28;20038;-70
2024/03/08 08:15:37;;;;;;;44.53;19.13;;;;;;;;;;5114475;28;20023;-71
2024/03/08 08:18:29;;;;;;;40.07;18.33;;;;;;;;;;5114352;28;20436;-70
2024/03/08 08:20:56;;;;;;;38.58;18.30;;;;;;;;;;5093122;28;20057;-71
2024/03/08 08:23:23;;;;;;;41.43;19.43;;;;;;;;;;5115031;28;20131;-70
2024/03/08 08:25:49;;;;;;;40.43;20.17;;;;;;;;;;5087763;28;20091;-73
2024/03/08 08:28:18;;;;;;;40.33;18.63;;;;;;;;;;5092264;27;20039;-76
2024/03/08 08:30:45;;;;;;;52.63;18.40;;;;;;;;;;5096441;27;20035;-72
2024/03/08 08:33:11;;;;;;;39.63;19.80;;;;;;;;;;5114030;28;20697;-69
2024/03/08 08:35:37;;;;;;;41.57;18.97;;;;;;;;;;5100488;27;20031;-71
2024/03/08 08:38:07;;;;;;;42.30;19.33;;;;;;;;;;5113748;27;20059;-72
2024/03/08 08:40:36;;;;;;;41.47;18.57;;;;;;;;;;5079536;27;20118;-72
2024/03/08 08:43:05;;;;;;;39.63;18.50;;;;;;;;;;5088030;28;20019;-71
2024/03/08 08:45:33;;;;;;;37.63;17.10;;;;;;;;;;5118879;27;20023;-72
2024/03/08 08:48:00;;;;;;;43.77;19.23;;;;;;;;;;5118078;27;20031;-71
2024/03/08 08:50:29;;;;;;;42.43;18.40;;;;;;;;;;5098686;28;20042;-72
2024/03/08 08:52:55;;;;;;;38.27;17.73;;;;;;;;;;5098561;27;20030;-71
2024/03/08 08:55:25;;;;;;;39.33;19.23;;;;;;;;;;5114625;27;20019;-71
2024/03/08 08:57:51;;;;;;;41.47;18.40;;;;;;;;;;5114693;27;20414;-71
2024/03/08 09:00:26;;;;;;;42.10;20.27;;;;;;;;;;5113360;27;20024;-72
2024/03/08 09:02:55;;;;;;;42.77;19.37;;;;;;;;;;5096910;27;20024;-70
2024/03/08 09:05:24;;;;;;;37.37;18.03;;;;;;;;;;5117278;27;20391;-71
2024/03/08 09:07:50;;;;;;;32.50;16.90;;;;;;;;;;5110960;27;20020;-72
2024/03/08 09:10:16;;;;;;;44.17;19.13;;;;;;;;;;5121552;27;20038;-72
2024/03/08 09:12:50;;;;;;;41.63;17.83;;;;;;;;;;5116151;27;20034;-72
2024/03/08 09:15:17;;;;;;;40.72;19.00;;;;;;;;;;5112348;27;20034;-70
2024/03/08 09:17:44;;;;;;;37.53;17.87;;;;;;;;;;5086752;27;20537;-70
2024/03/08 09:20:15;;;;;;;34.93;16.30;;;;;;;;;;5091847;28;20016;-70
2024/03/08 09:22:44;;;;;;;40.47;18.08;;;;;;;;;;5109452;27;20506;-69
2024/03/08 09:25:13;;;;;;;40.33;18.73;;;;;;;;;;5114885;27;20044;-71
2024/03/08 09:27:39;;;;;;;41.13;19.40;;;;;;;;;;5112195;27;20474;-69
2024/03/08 09:30:06;;;;;;;38.57;18.70;;;;;;;;;;5105705;27;20040;-69
2024/03/08 09:32:33;;;;;;;40.13;18.67;;;;;;;;;;5109399;27;20609;-70
2024/03/08 09:35:00;;;;;;;38.42;18.38;;;;;;;;;;5071429;27;20039;-71
2024/03/08 09:37:28;;;;;;;39.10;18.45;;;;;;;;;;5079689;27;20063;-70
2024/03/08 09:39:55;;;;;;;36.77;18.77;;;;;;;;;;5070155;28;20131;-70
2024/03/08 09:42:21;;;;;;;40.90;18.67;;;;;;;;;;5091980;27;20127;-71
2024/03/08 09:44:49;;;;;;;40.80;17.88;;;;;;;;;;5077094;27;20032;-69
2024/03/08 09:47:16;;;;;;;38.90;17.40;;;;;;;;;;5065247;27;20036;-70
2024/03/08 09:49:45;;;;;;;43.15;18.70;;;;;;;;;;5087140;28;20155;-69
2024/03/08 09:52:12;;;;;;;40.33;17.83;;;;;;;;;;5090312;27;20686;-72
2024/03/08 09:54:43;;;;;;;38.85;18.27;;;;;;;;;;5102738;27;20047;-70
2024/03/08 09:57:10;;;;;;;38.58;17.90;;;;;;;;;;5089537;28;20035;-71
2024/03/08 10:02:16;;;;;;;47.25;19.10;;;;;;;;;;5095238;28;20122;-68
2024/03/08 10:04:42;;;;;;;38.90;17.30;;;;;;;;;;5098567;27;20065;-69
2024/03/08 10:07:09;;;;;;;36.55;18.15;;;;;;;;;;5072871;27;20127;-71
2024/03/08 10:09:35;;;;;;;40.38;17.88;;;;;;;;;;5089616;28;20459;-69
2024/03/08 10:12:01;;;;;;;37.03;17.80;;;;;;;;;;5113725;27;20438;-72
2024/03/08 10:14:28;;;;;;;39.58;18.27;;;;;;;;;;5093468;28;20493;-70
2024/03/08 10:16:54;;;;;;;35.63;18.02;;;;;;;;;;5092009;27;20042;-70
2024/03/08 10:19:20;;;;;;;31.40;17.50;;;;;;;;;;5084180;28;20111;-69
2024/03/08 10:22:04;;;;;;;36.03;17.05;;;;;;;;;;5103758;27;20024;-73
2024/03/08 10:24:33;;;;;;;39.08;18.25;;;;;;;;;;5090497;28;20046;-70
2024/03/08 10:27:04;;;;;;;33.67;17.45;;;;;;;;;;5086560;28;20558;-71
2024/03/08 10:29:33;;;;;;;36.35;17.80;;;;;;;;;;5105730;27;20424;-71
2024/03/08 10:31:59;;;;;;;41.17;16.63;;;;;;;;;;5082519;28;20126;-71
2024/03/08 10:34:25;;;;;;;37.15;17.40;;;;;;;;;;5088464;27;20059;-71
2024/03/08 10:36:52;;;;;;;36.08;18.15;;;;;;;;;;5095005;28;20130;-71
2024/03/08 10:39:21;;;;;;;37.97;17.02;;;;;;;;;;5072568;28;20058;-70
2024/03/08 10:42:01;;;;;;;34.65;16.98;;;;;;;;;;5089045;28;20114;-70
2024/03/08 10:44:31;;;;;;;35.50;17.52;;;;;;;;;;5091652;27;20042;-71
2024/03/08 10:47:12;;;;;;;40.15;17.50;;;;;;;;;;5100699;27;20840;-72
2024/03/08 10:49:42;;;;;;;35.63;17.85;;;;;;;;;;5083484;28;20032;-69
2024/03/08 10:52:09;;;;;;;43.20;18.48;;;;;;;;;;5109595;27;20032;-71
2024/03/08 10:54:40;;;;;;;37.83;16.70;;;;;;;;;;5096700;27;20658;-70
2024/03/08 10:57:08;;;;;;;37.67;18.38;;;;;;;;;;5104713;28;20062;-70
2024/03/08 10:59:35;;;;;;;41.20;20.65;;;;;;;;;;5114767;27;20058;-70
2024/03/08 11:02:13;;;;;;;37.38;17.80;;;;;;;;;;5114276;27;20133;-71
2024/03/08 11:04:45;;;;;;;30.90;16.63;;;;;;;;;;5111450;27;20090;-69
2024/03/08 11:07:17;;;;;;;43.28;17.70;;;;;;;;;;5089658;28;20096;-69
2024/03/08 11:09:45;;;;;;;33.58;17.15;;;;;;;;;;5081085;28;20043;-70
2024/03/08 11:12:25;;;;;;;36.03;17.98;;;;;;;;;;5090728;28;20372;-69
2024/03/08 11:14:54;;;;;;;32.78;16.08;;;;;;;;;;5100638;28;20044;-70
2024/03/08 11:17:44;;;;;;;32.33;16.10;;;;;;;;;;5090700;28;20027;-75
2024/03/08 11:20:19;;;;;;;40.60;16.45;;;;;;;;;;5093347;28;20123;-71
2024/03/08 11:23:03;;;;;;;40.53;17.40;;;;;;;;;;5075216;28;20067;-70
2024/03/08 11:25:52;;;;;;;29.58;15.57;;;;;;;;;;5123314;27;20030;-70
2024/03/08 11:28:27;;;;;;;35.60;16.65;;;;;;;;;;5107618;28;20032;-71
2024/03/08 11:31:02;;;;;;;34.00;16.38;;;;;;;;;;5108730;27;20265;-71
2024/03/08 11:33:31;;;;;;;37.70;16.75;;;;;;;;;;5090569;28;20047;-71
2024/03/08 11:36:21;;;;;;;33.38;16.83;;;;;;;;;;5085178;28;20032;-69
2024/03/08 11:38:48;;;;;;;32.90;15.80;;;;;;;;;;5069260;27;20061;-71
2024/03/08 11:41:19;;;;;;;31.27;15.63;;;;;;;;;;5128383;27;20039;-69
2024/03/08 11:43:46;;;;;;;34.22;15.57;;;;;;;;;;5058286;27;20024;-71
2024/03/08 11:46:14;;;;;;;35.47;17.63;;;;;;;;;;5090797;28;20172;-71
2024/03/08 11:48:43;;;;;;;30.45;15.65;;;;;;;;;;5089554;28;20087;-69
2024/03/08 11:51:11;;;;;;;26.73;14.45;;;;;;;;;;5087648;28;20024;-71
2024/03/08 11:53:39;;;;;;;25.52;12.43;;;;;;;;;;5093994;27;20035;-71
2024/03/08 11:56:08;;;;;;;21.98;10.45;;;;;;;;;;5114411;27;20035;-70
2024/03/08 11:58:36;;;;;;;20.98;10.55;;;;;;;;;;5111248;28;20027;-72
2024/03/08 12:01:09;;;;;;;17.73;9.85;;;;;;;;;;5101029;28;20065;-73
2024/03/08 12:03:34;;;;;;;20.48;9.80;;;;;;;;;;5113528;27;20505;-71
2024/03/08 12:06:01;;;;;;;22.90;12.10;;;;;;;;;;5114158;27;20051;-70
2024/03/08 12:08:28;;;;;;;18.30;9.98;;;;;;;;;;5114059;27;20035;-73
2024/03/08 12:10:59;;;;;;;19.52;7.97;;;;;;;;;;5106349;28;20032;-70
2024/03/08 12:13:31;;;;;;;13.63;6.47;;;;;;;;;;5073931;28;20093;-72
2024/03/08 12:16:06;;;;;;;13.90;7.18;;;;;;;;;;5069866;28;20272;-71
2024/03/08 12:18:39;;;;;;;14.70;7.32;;;;;;;;;;5088927;28;20027;-70
2024/03/08 12:21:09;;;;;;;13.75;7.00;;;;;;;;;;5078818;28;20028;-68
2024/03/08 12:23:35;;;;;;;15.45;8.10;;;;;;;;;;5090660;28;20028;-70
2024/03/08 12:26:23;;;;;;;13.50;8.10;;;;;;;;;;5105406;28;20081;-69
2024/03/08 12:28:48;;;;;;;16.35;7.55;;;;;;;;;;5114551;28;20028;-71
2024/03/08 12:31:17;;;;;;;13.73;7.60;;;;;;;;;;5093705;28;20114;-71
2024/03/08 12:33:52;;;;;;;13.75;7.45;;;;;;;;;;5095130;28;20027;-74
2024/03/08 12:36:19;;;;;;;18.08;8.20;;;;;;;;;;5101680;28;20494;-72
2024/03/08 12:38:49;;;;;;;16.92;8.25;;;;;;;;;;5105728;28;20031;-75
2024/03/08 12:41:17;;;;;;;18.75;8.27;;;;;;;;;;5090206;28;20155;-72
2024/03/08 12:43:48;;;;;;;13.48;8.13;;;;;;;;;;5121340;28;20027;-75
2024/03/08 12:46:16;;;;;;;17.40;7.85;;;;;;;;;;5102083;28;20069;-74
2024/03/08 12:48:46;;;;;;;18.85;7.82;;;;;;;;;;5124103;28;20015;-73
2024/03/08 12:51:22;;;;;;;14.60;7.82;;;;;;;;;;5119522;28;20024;-71
2024/03/08 12:53:48;;;;;;;21.45;9.25;;;;;;;;;;5104202;28;20096;-72
2024/03/08 12:56:28;;;;;;;17.98;9.05;;;;;;;;;;5102838;28;20023;-76
2024/03/08 12:58:57;;;;;;;20.17;8.77;;;;;;;;;;5104692;28;20093;-74
2024/03/08 13:01:23;;;;;;;14.35;7.60;;;;;;;;;;5105955;28;20490;-73
2024/03/08 13:03:49;;;;;;;17.83;8.77;;;;;;;;;;5086313;28;20023;-74
2024/03/08 13:06:16;;;;;;;15.05;8.25;;;;;;;;;;5117640;28;20055;-74
2024/03/08 13:08:43;;;;;;;13.63;6.75;;;;;;;;;;5097683;28;20120;-73
2024/03/08 13:11:13;;;;;;;12.88;7.25;;;;;;;;;;5103779;28;20507;-74
2024/03/08 13:13:42;;;;;;;13.20;7.07;;;;;;;;;;5092357;28;20083;-74
2024/03/08 13:16:09;;;;;;;13.85;7.45;;;;;;;;;;5092933;28;20036;-75
2024/03/08 13:18:38;;;;;;;13.45;7.18;;;;;;;;;;5095793;28;20063;-71
2024/03/08 13:21:08;;;;;;;15.45;8.55;;;;;;;;;;5118321;27;20050;-71
2024/03/08 13:23:40;;;;;;;14.18;7.55;;;;;;;;;;5122227;27;20019;-70
2024/03/08 13:26:19;;;;;;;13.52;7.38;;;;;;;;;;5105557;28;20062;-71
2024/03/08 13:28:56;;;;;;;18.70;8.50;;;;;;;;;;5103276;27;20037;-72
2024/03/08 13:31:41;;;;;;;11.98;6.70;;;;;;;;;;5127134;27;20128;-73
2024/03/08 13:34:08;;;;;;;13.15;8.32;;;;;;;;;;5105654;27;20063;-70
2024/03/08 13:36:54;;;;;;;13.10;7.35;;;;;;;;;;5135511;27;20035;-72
2024/03/08 13:39:20;;;;;;;15.15;7.63;;;;;;;;;;5102249;28;20053;-71
2024/03/08 13:41:46;;;;;;;15.00;8.13;;;;;;;;;;5101584;27;20018;-71
2024/03/08 13:44:17;;;;;;;17.50;7.93;;;;;;;;;;5100347;28;20034;-73
2024/03/08 13:46:47;;;;;;;15.85;8.18;;;;;;;;;;5103206;28;20046;-70
2024/03/08 13:49:14;;;;;;;14.20;7.03;;;;;;;;;;5121144;27;20054;-70
2024/03/08 13:51:42;;;;;;;14.05;7.90;;;;;;;;;;5091937;27;20140;-73
2024/03/08 13:54:08;;;;;;;12.18;7.05;;;;;;;;;;5113224;28;20031;-72
2024/03/08 13:56:35;;;;;;;14.18;7.60;;;;;;;;;;5089745;27;20034;-71
2024/03/08 13:59:03;;;;;;;12.52;8.15;;;;;;;;;;5133740;27;20023;-71
2024/03/08 14:01:30;;;;;;;12.88;7.20;;;;;;;;;;5098476;28;20023;-70
2024/03/08 14:03:56;;;;;;;13.73;8.40;;;;;;;;;;5089414;28;20065;-70
2024/03/08 14:06:25;;;;;;;10.23;6.60;;;;;;;;;;5097610;27;20070;-70
2024/03/08 14:08:51;;;;;;;12.85;9.18;;;;;;;;;;5083279;28;20084;-70
2024/03/08 14:11:18;;;;;;;15.68;7.82;;;;;;;;;;5103850;27;20027;-70
2024/03/08 14:13:45;;;;;;;14.38;8.57;;;;;;;;;;5124125;27;20028;-69
2024/03/08 14:16:12;;;;;;;17.48;8.30;;;;;;;;;;5113882;27;20791;-69
2024/03/08 14:18:38;;;;;;;17.02;8.80;;;;;;;;;;5093197;28;20031;-69
2024/03/08 14:21:07;;;;;;;13.48;8.57;;;;;;;;;;5091452;28;20023;-70
2024/03/08 14:23:32;;;;;;;22.38;8.57;;;;;;;;;;5116993;27;20057;-72
2024/03/08 14:25:59;;;;;;;19.67;10.27;;;;;;;;;;5097820;27;20036;-70
2024/03/08 14:28:27;;;;;;;19.58;9.43;;;;;;;;;;5117749;27;20020;-71